createdAt,value
2022-11-03T00:00:00.433Z,157.5
2022-11-03T00:05:00.338Z,157.5
2022-11-03T00:10:00.359Z,157.5
2022-11-03T00:15:00.332Z,157.5
2022-11-03T00:20:00.343Z,157.5
2022-11-03T00:25:00.370Z,157.5
2022-11-03T00:30:01.228Z,157.4
2022-11-03T00:35:00.517Z,157.5
2022-11-03T00:40:00.341Z,157.5
2022-11-03T00:45:00.517Z,157.5
2022-11-03T00:50:00.438Z,157.5
2022-11-03T00:55:00.364Z,157.5
2022-11-03T01:00:00.386Z,157.5
2022-11-03T01:05:00.332Z,157.5
2022-11-03T01:10:00.395Z,157.5
2022-11-03T01:15:00.347Z,157.5
2022-11-03T01:20:00.367Z,157.5
2022-11-03T01:25:00.395Z,157.5
2022-11-03T01:30:00.348Z,157.5
2022-11-03T01:35:00.485Z,157.5
2022-11-03T01:40:00.352Z,157.5
2022-11-03T01:45:00.354Z,157.5
2022-11-03T01:50:00.387Z,157.5
2022-11-03T01:55:00.834Z,135.5
2022-11-03T02:00:00.420Z,135.0
2022-11-03T02:05:00.348Z,167.8
2022-11-03T02:10:00.474Z,224.8
2022-11-03T02:15:00.609Z,182.6
2022-11-03T02:20:00.357Z,180.0
2022-11-03T02:25:00.348Z,180.0
2022-11-03T02:30:00.370Z,180.0
2022-11-03T02:35:00.313Z,180.0
2022-11-03T02:40:00.365Z,180.0
2022-11-03T02:45:00.376Z,177.6
2022-11-03T02:50:00.645Z,175.3
2022-11-03T02:55:00.348Z,172.1
2022-11-03T03:00:00.377Z,180.0
2022-11-03T03:05:00.309Z,180.0
2022-11-03T03:10:00.364Z,180.0
2022-11-03T03:15:00.338Z,180.0
2022-11-03T03:20:00.359Z,202.1
2022-11-03T03:25:00.343Z,202.5
2022-11-03T03:30:00.429Z,202.5
2022-11-03T03:35:00.342Z,202.5
2022-11-03T03:40:00.363Z,202.5
2022-11-03T03:45:00.352Z,202.5
2022-11-03T03:50:00.375Z,202.5
2022-11-03T03:55:00.356Z,182.1
2022-11-03T04:00:00.385Z,180.0
2022-11-03T04:05:00.342Z,180.0
2022-11-03T04:10:00.375Z,180.0
2022-11-03T04:15:00.379Z,174.4
2022-11-03T04:20:00.370Z,157.7
2022-11-03T04:25:00.347Z,170.9
2022-11-03T04:30:00.486Z,157.6
2022-11-03T04:35:00.393Z,157.5
2022-11-03T04:40:00.624Z,157.5
2022-11-03T04:45:00.398Z,157.5
2022-11-03T04:50:00.377Z,157.5
2022-11-03T04:55:00.349Z,157.5
2022-11-03T05:00:00.435Z,156.7
2022-11-03T05:05:00.356Z,157.1
2022-11-03T05:10:00.572Z,157.5
2022-11-03T05:15:00.797Z,106.3
2022-11-03T05:20:00.469Z,136.0
2022-11-03T05:25:00.552Z,162.7
2022-11-03T05:30:01.681Z,157.5
2022-11-03T05:35:00.448Z,157.5
2022-11-03T05:40:00.375Z,159.5
2022-11-03T05:45:00.343Z,155.5
2022-11-03T05:50:00.531Z,166.7
2022-11-03T05:55:00.503Z,168.9
2022-11-03T06:00:00.513Z,179.2
2022-11-03T06:05:00.383Z,180.0
2022-11-03T06:10:00.723Z,180.0
2022-11-03T06:15:00.346Z,159.2
2022-11-03T06:20:00.531Z,157.5
2022-11-03T06:25:00.354Z,149.1
2022-11-03T06:30:00.359Z,157.2
2022-11-03T06:35:00.337Z,158.4
2022-11-03T06:40:00.453Z,174.1
2022-11-03T06:45:00.309Z,174.2
2022-11-03T06:50:00.391Z,158.2
2022-11-03T06:55:00.345Z,175.1
2022-11-03T07:00:35.044Z,162.2
2022-11-03T07:05:00.327Z,180.8
2022-11-03T07:10:00.345Z,162.7
2022-11-03T07:15:00.575Z,164.8
2022-11-03T07:20:00.383Z,179.2
2022-11-03T07:25:00.345Z,176.9
2022-11-03T07:30:00.357Z,159.9
2022-11-03T07:35:00.329Z,165.2
2022-11-03T07:40:01.016Z,169.2
2022-11-03T07:45:00.443Z,169.1
2022-11-03T07:50:00.364Z,166.1
2022-11-03T07:55:00.340Z,170.9
2022-11-03T08:00:10.995Z,173.1
2022-11-03T08:05:00.336Z,171.4
2022-11-03T08:10:00.423Z,170.6
2022-11-03T08:15:00.351Z,167.5
2022-11-03T08:20:00.377Z,163.6
2022-11-03T08:25:00.371Z,174.1
2022-11-03T08:30:00.482Z,171.7
2022-11-03T08:35:00.565Z,170.8
2022-11-03T08:40:00.360Z,167.7
2022-11-03T08:45:00.358Z,171.8
2022-11-03T08:50:00.361Z,167.7
2022-11-03T09:05:00.329Z,170.2
2022-11-03T09:15:00.992Z,169.8
2022-11-03T09:20:00.408Z,167.1
2022-11-03T09:25:00.357Z,171.1
2022-11-03T09:30:14.773Z,175.3
2022-11-03T09:35:00.349Z,179.6
2022-11-03T09:40:00.583Z,170.5
2022-11-03T09:45:00.482Z,168.5
2022-11-03T09:50:00.524Z,173.6
2022-11-03T09:55:00.533Z,176.1
2022-11-03T10:00:00.489Z,166.5
2022-11-03T10:05:00.763Z,174.5
2022-11-03T10:10:00.419Z,173.8
2022-11-03T10:15:00.454Z,173.5
2022-11-03T10:20:00.470Z,169.5
2022-11-03T10:25:00.472Z,171.3
2022-11-03T10:30:00.427Z,166.0
2022-11-03T10:35:00.444Z,158.6
2022-11-03T10:40:00.440Z,167.5
2022-11-03T10:45:00.428Z,158.1
2022-11-03T10:50:00.558Z,163.2
2022-11-03T10:55:00.431Z,162.4
2022-11-03T11:00:00.462Z,166.8
2022-11-03T11:05:00.448Z,173.9
2022-11-03T11:10:00.405Z,172.5
2022-11-03T11:15:00.514Z,168.1
2022-11-03T11:20:00.437Z,175.7
2022-11-03T11:25:00.555Z,159.9
2022-11-03T11:30:00.435Z,162.4
2022-11-03T11:35:00.400Z,166.7
2022-11-03T11:40:00.488Z,168.7
2022-11-03T11:45:00.413Z,169.8
2022-11-03T11:50:00.415Z,170.7
2022-11-03T11:55:00.468Z,167.1
2022-11-03T12:00:00.447Z,166.2
2022-11-03T12:05:00.436Z,173.6
2022-11-03T12:10:01.981Z,163.9
2022-11-03T12:15:00.373Z,164.5
2022-11-03T12:20:00.491Z,174.3
2022-11-03T12:25:00.378Z,178.0
2022-11-03T12:30:00.578Z,156.8
2022-11-03T12:35:00.464Z,182.7
2022-11-03T12:40:00.520Z,157.4
2022-11-03T12:45:00.518Z,161.5
2022-11-03T12:50:00.381Z,161.9
2022-11-03T12:55:00.388Z,161.1
2022-11-03T13:00:00.436Z,163.5
2022-11-03T13:05:00.385Z,157.8
2022-11-03T13:10:00.679Z,160.4
2022-11-03T13:15:00.416Z,175.8
2022-11-03T13:20:00.696Z,157.1
2022-11-03T13:25:00.345Z,119.5
2022-11-03T13:30:00.425Z,155.6
2022-11-03T13:35:00.333Z,160.7
2022-11-03T13:40:00.378Z,140.2
2022-11-03T13:45:01.142Z,140.6
2022-11-03T13:50:16.065Z,123.1
2022-11-03T13:55:43.546Z,133.7
2022-11-03T14:00:05.751Z,155.6
2022-11-03T14:05:00.328Z,147.4
2022-11-03T14:10:04.837Z,153.7
2022-11-03T14:15:00.385Z,168.7
2022-11-03T14:20:05.494Z,149.5
2022-11-03T14:25:00.340Z,145.3
2022-11-03T14:30:00.398Z,165.0
2022-11-03T14:35:01.338Z,127.3
2022-11-03T14:40:00.439Z,138.1
2022-11-03T14:45:00.364Z,151.8
2022-11-03T14:50:00.326Z,117.0
2022-11-03T14:55:00.370Z,104.9
2022-11-03T15:00:00.385Z,119.4
2022-11-03T15:05:00.339Z,126.7
2022-11-03T15:10:00.558Z,158.9
2022-11-03T15:15:00.356Z,104.2
2022-11-03T15:20:00.372Z,109.6
2022-11-03T15:30:00.386Z,325.3
2022-11-03T15:35:00.336Z,144.9
2022-11-03T15:40:00.447Z,94.8
2022-11-03T15:45:00.448Z,116.1
2022-11-03T15:50:00.716Z,90.2
2022-11-03T15:55:00.300Z,97.2
2022-11-03T16:00:00.398Z,124.4
2022-11-03T16:05:00.373Z,90.4
2022-11-03T16:10:00.356Z,108.3
2022-11-03T16:15:00.365Z,110.1
2022-11-03T16:20:00.746Z,98.6
2022-11-03T16:25:00.367Z,95.2
2022-11-03T16:30:00.685Z,125.6
2022-11-03T16:35:00.362Z,95.2
2022-11-03T16:40:00.405Z,133.1
2022-11-03T16:45:00.344Z,131.8
2022-11-03T16:50:00.394Z,142.0
2022-11-03T16:55:00.324Z,138.7
2022-11-03T17:00:00.412Z,133.2
2022-11-03T17:05:00.345Z,148.9
2022-11-03T17:10:00.355Z,119.0
2022-11-03T17:15:00.346Z,142.9
2022-11-03T17:20:00.535Z,139.1
2022-11-03T17:25:00.361Z,125.5
2022-11-03T17:30:00.380Z,152.3
2022-11-03T17:35:00.330Z,154.5
2022-11-03T17:40:00.346Z,136.3
2022-11-03T17:45:00.362Z,156.1
2022-11-03T17:50:00.378Z,158.0
2022-11-03T17:55:00.365Z,139.1
2022-11-03T18:00:00.496Z,150.3
2022-11-03T18:05:00.401Z,142.3
2022-11-03T18:10:00.372Z,155.0
2022-11-03T18:15:00.356Z,137.6
2022-11-03T18:20:00.420Z,144.9
2022-11-03T18:25:00.312Z,149.1
2022-11-03T18:30:00.366Z,140.0
2022-11-03T18:35:00.359Z,162.5
2022-11-03T18:40:00.336Z,156.1
2022-11-03T18:45:03.434Z,146.5
2022-11-03T18:50:00.351Z,134.9
2022-11-03T18:55:00.317Z,125.4
2022-11-03T19:00:00.380Z,150.8
2022-11-03T19:05:00.350Z,152.4
2022-11-03T19:10:00.374Z,134.2
2022-11-03T19:15:00.357Z,139.2
2022-11-03T19:20:00.377Z,153.7
2022-11-03T19:30:00.440Z,156.5
2022-11-03T19:35:00.361Z,164.0
2022-11-03T19:40:00.395Z,145.7
2022-11-03T19:45:00.385Z,144.6
2022-11-03T19:50:00.388Z,150.1
2022-11-03T19:55:00.343Z,148.2
2022-11-03T20:00:00.353Z,145.6
2022-11-03T20:05:00.367Z,150.3
2022-11-03T20:10:00.415Z,85.1
2022-11-03T20:15:00.378Z,85.4
2022-11-03T20:20:00.428Z,110.3
2022-11-03T20:25:00.371Z,127.6
2022-11-03T20:30:00.399Z,154.3
2022-11-03T20:35:00.393Z,157.6
2022-11-03T20:40:00.371Z,130.8
2022-11-03T20:45:00.353Z,143.2
2022-11-03T20:50:00.351Z,137.5
2022-11-03T20:55:00.353Z,131.1
2022-11-03T21:00:00.425Z,146.3
2022-11-03T21:10:00.373Z,128.8
2022-11-03T21:20:00.377Z,155.7
2022-11-03T21:25:00.348Z,156.0
2022-11-03T21:30:00.844Z,128.0
2022-11-03T21:35:00.352Z,105.4
2022-11-03T21:40:00.397Z,152.9
2022-11-03T21:45:00.574Z,157.3
2022-11-03T21:55:00.380Z,115.2
2022-11-03T22:00:00.411Z,156.6
2022-11-03T22:05:00.345Z,142.7
2022-11-03T22:10:00.382Z,98.6
2022-11-03T22:15:00.367Z,87.7
2022-11-03T22:20:00.481Z,86.8
2022-11-03T22:25:00.361Z,111.1
2022-11-03T22:30:00.403Z,124.4
2022-11-03T22:35:00.344Z,148.3
2022-11-03T22:40:00.376Z,114.2
2022-11-03T22:45:00.354Z,113.7
2022-11-03T22:50:00.335Z,148.7
2022-11-03T22:55:00.805Z,126.4
2022-11-03T23:00:00.514Z,63.4
2022-11-03T23:05:00.367Z,69.9
2022-11-03T23:10:00.344Z,68.8
2022-11-03T23:15:00.358Z,66.9
2022-11-03T23:20:00.366Z,142.8
2022-11-03T23:25:00.561Z,109.3
2022-11-03T23:30:00.393Z,116.3
2022-11-03T23:35:00.417Z,45.7
2022-11-03T23:40:00.363Z,101.2
2022-11-03T23:45:00.376Z,78.9
2022-11-03T23:50:00.383Z,45.2
2022-11-03T23:55:00.334Z,65.3
